sensor_id;sensor_type;location;lat;lon;timestamp;P1;durP1;ratioP1;P2;durP2;ratioP2
19842;SDS011;10082;51.038;6.992;2023-04-09T00:00:27;32.65;;;29.13;;
19842;SDS011;10082;51.038;6.992;2023-04-09T00:02:56;31.92;;;28.70;;
19842;SDS011;10082;51.038;6.992;2023-04-09T00:05:24;32.28;;;28.98;;
19842;SDS011;10082;51.038;6.992;2023-04-09T00:07:51;32.87;;;29.33;;
19842;SDS011;10082;51.038;6.992;2023-04-09T00:10:18;32.58;;;29.17;;
19842;SDS011;10082;51.038;6.992;2023-04-09T00:12:46;33.93;;;30.23;;
19842;SDS011;10082;51.038;6.992;2023-04-09T00:15:15;31.45;;;28.17;;
19842;SDS011;10082;51.038;6.992;2023-04-09T00:17:42;35.93;;;31.47;;
19842;SDS011;10082;51.038;6.992;2023-04-09T00:20:10;34.60;;;31.00;;
19842;SDS011;10082;51.038;6.992;2023-04-09T00:22:38;32.40;;;28.93;;
19842;SDS011;10082;51.038;6.992;2023-04-09T00:25:06;33.63;;;30.17;;
19842;SDS011;10082;51.038;6.992;2023-04-09T00:27:34;34.30;;;30.58;;
19842;SDS011;10082;51.038;6.992;2023-04-09T00:30:01;34.13;;;30.53;;
19842;SDS011;10082;51.038;6.992;2023-04-09T00:32:31;33.53;;;30.02;;
19842;SDS011;10082;51.038;6.992;2023-04-09T00:34:58;34.83;;;31.13;;
19842;SDS011;10082;51.038;6.992;2023-04-09T00:37:26;34.88;;;31.17;;
19842;SDS011;10082;51.038;6.992;2023-04-09T00:39:56;35.80;;;31.83;;
19842;SDS011;10082;51.038;6.992;2023-04-09T00:42:24;35.77;;;31.73;;
19842;SDS011;10082;51.038;6.992;2023-04-09T00:44:52;35.10;;;31.42;;
19842;SDS011;10082;51.038;6.992;2023-04-09T00:47:21;35.80;;;31.90;;
19842;SDS011;10082;51.038;6.992;2023-04-09T00:49:49;35.63;;;30.83;;
19842;SDS011;10082;51.038;6.992;2023-04-09T00:52:16;36.92;;;32.95;;
19842;SDS011;10082;51.038;6.992;2023-04-09T00:54:44;34.13;;;30.43;;
19842;SDS011;10082;51.038;6.992;2023-04-09T00:57:11;37.50;;;33.50;;
19842;SDS011;10082;51.038;6.992;2023-04-09T00:59:38;35.10;;;31.40;;
19842;SDS011;10082;51.038;6.992;2023-04-09T01:02:06;33.57;;;30.00;;
19842;SDS011;10082;51.038;6.992;2023-04-09T01:04:33;33.93;;;30.33;;
19842;SDS011;10082;51.038;6.992;2023-04-09T01:07:04;34.17;;;30.47;;
19842;SDS011;10082;51.038;6.992;2023-04-09T01:09:40;32.37;;;29.03;;
19842;SDS011;10082;51.038;6.992;2023-04-09T01:12:11;36.10;;;32.17;;
19842;SDS011;10082;51.038;6.992;2023-04-09T01:14:48;33.53;;;29.83;;
19842;SDS011;10082;51.038;6.992;2023-04-09T01:17:21;36.60;;;32.70;;
19842;SDS011;10082;51.038;6.992;2023-04-09T01:19:53;36.80;;;32.80;;
19842;SDS011;10082;51.038;6.992;2023-04-09T01:22:35;34.90;;;31.20;;
19842;SDS011;10082;51.038;6.992;2023-04-09T01:25:13;35.53;;;31.37;;
19842;SDS011;10082;51.038;6.992;2023-04-09T01:27:52;34.40;;;30.80;;
19842;SDS011;10082;51.038;6.992;2023-04-09T01:30:26;34.60;;;30.97;;
19842;SDS011;10082;51.038;6.992;2023-04-09T01:32:54;36.70;;;32.73;;
19842;SDS011;10082;51.038;6.992;2023-04-09T01:35:23;34.87;;;30.93;;
19842;SDS011;10082;51.038;6.992;2023-04-09T01:37:52;36.50;;;32.60;;
19842;SDS011;10082;51.038;6.992;2023-04-09T01:40:20;35.77;;;31.90;;
19842;SDS011;10082;51.038;6.992;2023-04-09T01:42:47;35.53;;;31.73;;
19842;SDS011;10082;51.038;6.992;2023-04-09T01:45:16;34.27;;;30.57;;
19842;SDS011;10082;51.038;6.992;2023-04-09T01:47:46;35.20;;;31.40;;
19842;SDS011;10082;51.038;6.992;2023-04-09T01:50:14;34.50;;;30.83;;
19842;SDS011;10082;51.038;6.992;2023-04-09T01:52:42;33.90;;;30.20;;
19842;SDS011;10082;51.038;6.992;2023-04-09T01:55:09;32.33;;;28.83;;
19842;SDS011;10082;51.038;6.992;2023-04-09T01:57:37;36.80;;;32.57;;
19842;SDS011;10082;51.038;6.992;2023-04-09T02:00:05;38.43;;;34.27;;
19842;SDS011;10082;51.038;6.992;2023-04-09T02:02:41;40.00;;;34.63;;
19842;SDS011;10082;51.038;6.992;2023-04-09T02:05:14;39.30;;;33.93;;
19842;SDS011;10082;51.038;6.992;2023-04-09T02:07:48;36.93;;;32.93;;
19842;SDS011;10082;51.038;6.992;2023-04-09T02:10:20;37.27;;;33.17;;
19842;SDS011;10082;51.038;6.992;2023-04-09T02:12:51;36.23;;;32.33;;
19842;SDS011;10082;51.038;6.992;2023-04-09T02:15:21;33.90;;;30.20;;
19842;SDS011;10082;51.038;6.992;2023-04-09T02:17:50;39.20;;;33.60;;
19842;SDS011;10082;51.038;6.992;2023-04-09T02:20:19;34.63;;;30.87;;
19842;SDS011;10082;51.038;6.992;2023-04-09T02:22:47;34.80;;;30.87;;
19842;SDS011;10082;51.038;6.992;2023-04-09T02:25:14;34.10;;;30.40;;
19842;SDS011;10082;51.038;6.992;2023-04-09T02:27:42;33.33;;;29.73;;
19842;SDS011;10082;51.038;6.992;2023-04-09T02:30:09;34.23;;;30.53;;
19842;SDS011;10082;51.038;6.992;2023-04-09T02:32:37;33.20;;;29.67;;
19842;SDS011;10082;51.038;6.992;2023-04-09T02:35:06;33.50;;;29.90;;
19842;SDS011;10082;51.038;6.992;2023-04-09T02:37:36;32.47;;;29.13;;
19842;SDS011;10082;51.038;6.992;2023-04-09T02:40:03;31.77;;;28.33;;
19842;SDS011;10082;51.038;6.992;2023-04-09T02:42:31;29.97;;;26.87;;
19842;SDS011;10082;51.038;6.992;2023-04-09T02:44:58;29.13;;;26.07;;
19842;SDS011;10082;51.038;6.992;2023-04-09T02:47:26;31.07;;;27.67;;
19842;SDS011;10082;51.038;6.992;2023-04-09T02:49:54;30.63;;;27.50;;
19842;SDS011;10082;51.038;6.992;2023-04-09T02:52:21;30.07;;;26.87;;
19842;SDS011;10082;51.038;6.992;2023-04-09T02:54:52;29.17;;;26.07;;
19842;SDS011;10082;51.038;6.992;2023-04-09T02:57:19;29.87;;;26.67;;
19842;SDS011;10082;51.038;6.992;2023-04-09T02:59:47;29.50;;;25.93;;
19842;SDS011;10082;51.038;6.992;2023-04-09T03:02:14;31.03;;;26.10;;
19842;SDS011;10082;51.038;6.992;2023-04-09T03:04:41;30.53;;;27.27;;
19842;SDS011;10082;51.038;6.992;2023-04-09T03:07:10;27.70;;;24.80;;
19842;SDS011;10082;51.038;6.992;2023-04-09T03:09:37;30.87;;;27.57;;
19842;SDS011;10082;51.038;6.992;2023-04-09T03:12:06;31.47;;;28.07;;
19842;SDS011;10082;51.038;6.992;2023-04-09T03:14:34;29.27;;;26.13;;
19842;SDS011;10082;51.038;6.992;2023-04-09T03:17:01;32.07;;;28.63;;
19842;SDS011;10082;51.038;6.992;2023-04-09T03:19:29;30.50;;;27.13;;
19842;SDS011;10082;51.038;6.992;2023-04-09T03:21:57;30.73;;;27.47;;
19842;SDS011;10082;51.038;6.992;2023-04-09T03:24:27;31.07;;;27.33;;
19842;SDS011;10082;51.038;6.992;2023-04-09T03:26:58;28.97;;;25.93;;
19842;SDS011;10082;51.038;6.992;2023-04-09T03:29:27;33.63;;;29.17;;
19842;SDS011;10082;51.038;6.992;2023-04-09T03:31:57;32.20;;;28.70;;
19842;SDS011;10082;51.038;6.992;2023-04-09T03:34:24;31.03;;;27.73;;
19842;SDS011;10082;51.038;6.992;2023-04-09T03:36:54;33.00;;;28.97;;
19842;SDS011;10082;51.038;6.992;2023-04-09T03:39:25;31.87;;;28.23;;
19842;SDS011;10082;51.038;6.992;2023-04-09T03:41:55;34.00;;;29.57;;
19842;SDS011;10082;51.038;6.992;2023-04-09T03:44:28;31.53;;;28.20;;
19842;SDS011;10082;51.038;6.992;2023-04-09T03:47:01;32.90;;;27.73;;
19842;SDS011;10082;51.038;6.992;2023-04-09T03:49:28;31.60;;;28.10;;
19842;SDS011;10082;51.038;6.992;2023-04-09T03:52:05;31.63;;;28.20;;
19842;SDS011;10082;51.038;6.992;2023-04-09T03:54:36;33.23;;;28.90;;
19842;SDS011;10082;51.038;6.992;2023-04-09T03:57:10;31.70;;;27.53;;
19842;SDS011;10082;51.038;6.992;2023-04-09T03:59:41;29.23;;;25.97;;
19842;SDS011;10082;51.038;6.992;2023-04-09T04:02:10;31.17;;;27.73;;
19842;SDS011;10082;51.038;6.992;2023-04-09T04:04:43;30.00;;;26.80;;
19842;SDS011;10082;51.038;6.992;2023-04-09T04:07:10;31.03;;;27.30;;
19842;SDS011;10082;51.038;6.992;2023-04-09T04:09:54;30.73;;;27.20;;
19842;SDS011;10082;51.038;6.992;2023-04-09T04:12:21;31.27;;;27.87;;
19842;SDS011;10082;51.038;6.992;2023-04-09T04:15:05;34.70;;;28.07;;
19842;SDS011;10082;51.038;6.992;2023-04-09T04:17:41;31.40;;;27.70;;
19842;SDS011;10082;51.038;6.992;2023-04-09T04:20:41;33.67;;;29.67;;
19842;SDS011;10082;51.038;6.992;2023-04-09T04:23:12;33.87;;;29.00;;
19842;SDS011;10082;51.038;6.992;2023-04-09T04:25:48;33.00;;;29.50;;
19842;SDS011;10082;51.038;6.992;2023-04-09T04:28:23;36.13;;;29.20;;
19842;SDS011;10082;51.038;6.992;2023-04-09T04:30:52;36.50;;;30.70;;
19842;SDS011;10082;51.038;6.992;2023-04-09T04:33:20;36.13;;;29.97;;
19842;SDS011;10082;51.038;6.992;2023-04-09T04:35:52;38.13;;;30.87;;
19842;SDS011;10082;51.038;6.992;2023-04-09T04:38:34;35.13;;;29.27;;
19842;SDS011;10082;51.038;6.992;2023-04-09T04:41:06;34.97;;;28.13;;
19842;SDS011;10082;51.038;6.992;2023-04-09T04:43:38;31.60;;;27.90;;
19842;SDS011;10082;51.038;6.992;2023-04-09T04:46:10;32.77;;;29.10;;
19842;SDS011;10082;51.038;6.992;2023-04-09T04:48:37;35.77;;;30.97;;
19842;SDS011;10082;51.038;6.992;2023-04-09T04:51:04;36.10;;;30.20;;
19842;SDS011;10082;51.038;6.992;2023-04-09T04:53:39;34.17;;;28.23;;
19842;SDS011;10082;51.038;6.992;2023-04-09T04:56:11;33.83;;;28.70;;
19842;SDS011;10082;51.038;6.992;2023-04-09T04:58:45;33.23;;;28.83;;
19842;SDS011;10082;51.038;6.992;2023-04-09T05:01:17;36.80;;;30.20;;
19842;SDS011;10082;51.038;6.992;2023-04-09T05:03:45;35.27;;;29.87;;
19842;SDS011;10082;51.038;6.992;2023-04-09T05:06:29;33.37;;;28.53;;
19842;SDS011;10082;51.038;6.992;2023-04-09T05:09:00;34.50;;;29.23;;
19842;SDS011;10082;51.038;6.992;2023-04-09T05:11:36;34.80;;;29.47;;
19842;SDS011;10082;51.038;6.992;2023-04-09T05:14:10;35.20;;;29.53;;
19842;SDS011;10082;51.038;6.992;2023-04-09T05:16:39;33.43;;;28.87;;
19842;SDS011;10082;51.038;6.992;2023-04-09T05:19:09;33.67;;;27.93;;
19842;SDS011;10082;51.038;6.992;2023-04-09T05:21:37;36.37;;;30.80;;
19842;SDS011;10082;51.038;6.992;2023-04-09T05:24:08;37.27;;;29.67;;
19842;SDS011;10082;51.038;6.992;2023-04-09T05:26:35;34.07;;;28.77;;
19842;SDS011;10082;51.038;6.992;2023-04-09T05:29:02;31.57;;;27.47;;
19842;SDS011;10082;51.038;6.992;2023-04-09T05:31:31;32.83;;;28.57;;
19842;SDS011;10082;51.038;6.992;2023-04-09T05:34:07;34.13;;;29.20;;
19842;SDS011;10082;51.038;6.992;2023-04-09T05:36:41;35.70;;;29.67;;
19842;SDS011;10082;51.038;6.992;2023-04-09T05:39:10;33.93;;;27.83;;
19842;SDS011;10082;51.038;6.992;2023-04-09T05:41:41;31.63;;;27.10;;
19842;SDS011;10082;51.038;6.992;2023-04-09T05:44:25;34.40;;;28.00;;
19842;SDS011;10082;51.038;6.992;2023-04-09T05:47:13;32.50;;;26.73;;
19842;SDS011;10082;51.038;6.992;2023-04-09T05:49:52;28.50;;;25.33;;
19842;SDS011;10082;51.038;6.992;2023-04-09T05:52:23;29.40;;;24.87;;
19842;SDS011;10082;51.038;6.992;2023-04-09T05:54:51;29.30;;;25.33;;
19842;SDS011;10082;51.038;6.992;2023-04-09T05:57:24;26.30;;;22.37;;
19842;SDS011;10082;51.038;6.992;2023-04-09T05:59:58;23.30;;;20.67;;
19842;SDS011;10082;51.038;6.992;2023-04-09T06:02:28;20.80;;;18.60;;
19842;SDS011;10082;51.038;6.992;2023-04-09T06:04:57;20.23;;;17.33;;
19842;SDS011;10082;51.038;6.992;2023-04-09T06:07:25;18.23;;;16.30;;
19842;SDS011;10082;51.038;6.992;2023-04-09T06:09:52;16.63;;;14.93;;
19842;SDS011;10082;51.038;6.992;2023-04-09T06:12:21;18.53;;;15.57;;
19842;SDS011;10082;51.038;6.992;2023-04-09T06:14:48;15.63;;;14.00;;
19842;SDS011;10082;51.038;6.992;2023-04-09T06:17:15;14.73;;;13.20;;
19842;SDS011;10082;51.038;6.992;2023-04-09T06:19:42;16.33;;;13.07;;
19842;SDS011;10082;51.038;6.992;2023-04-09T06:22:11;14.10;;;12.70;;
19842;SDS011;10082;51.038;6.992;2023-04-09T06:24:38;14.20;;;12.07;;
19842;SDS011;10082;51.038;6.992;2023-04-09T06:27:05;13.10;;;11.63;;
19842;SDS011;10082;51.038;6.992;2023-04-09T06:29:32;13.18;;;11.77;;
19842;SDS011;10082;51.038;6.992;2023-04-09T06:31:59;13.35;;;11.95;;
19842;SDS011;10082;51.038;6.992;2023-04-09T06:34:27;12.40;;;11.18;;
19842;SDS011;10082;51.038;6.992;2023-04-09T06:36:55;13.30;;;12.00;;
19842;SDS011;10082;51.038;6.992;2023-04-09T06:39:23;13.55;;;12.15;;
19842;SDS011;10082;51.038;6.992;2023-04-09T06:41:50;13.05;;;11.65;;
19842;SDS011;10082;51.038;6.992;2023-04-09T06:44:30;13.05;;;11.68;;
19842;SDS011;10082;51.038;6.992;2023-04-09T06:46:57;12.65;;;11.35;;
19842;SDS011;10082;51.038;6.992;2023-04-09T06:49:24;12.63;;;11.25;;
19842;SDS011;10082;51.038;6.992;2023-04-09T06:51:51;12.77;;;11.52;;
19842;SDS011;10082;51.038;6.992;2023-04-09T06:54:18;13.18;;;11.95;;
19842;SDS011;10082;51.038;6.992;2023-04-09T06:56:46;13.82;;;12.32;;
19842;SDS011;10082;51.038;6.992;2023-04-09T06:59:13;12.85;;;11.25;;
19842;SDS011;10082;51.038;6.992;2023-04-09T07:01:41;12.68;;;11.38;;
19842;SDS011;10082;51.038;6.992;2023-04-09T07:04:08;12.40;;;11.20;;
19842;SDS011;10082;51.038;6.992;2023-04-09T07:06:35;12.27;;;11.05;;
19842;SDS011;10082;51.038;6.992;2023-04-09T07:09:02;12.77;;;11.50;;
19842;SDS011;10082;51.038;6.992;2023-04-09T07:11:29;12.27;;;11.07;;
19842;SDS011;10082;51.038;6.992;2023-04-09T07:13:58;11.90;;;10.70;;
19842;SDS011;10082;51.038;6.992;2023-04-09T07:16:26;12.23;;;11.02;;
19842;SDS011;10082;51.038;6.992;2023-04-09T07:18:53;11.80;;;10.60;;
19842;SDS011;10082;51.038;6.992;2023-04-09T07:21:20;11.55;;;10.45;;
19842;SDS011;10082;51.038;6.992;2023-04-09T07:23:47;10.65;;;9.65;;
19842;SDS011;10082;51.038;6.992;2023-04-09T07:26:15;10.55;;;9.45;;
19842;SDS011;10082;51.038;6.992;2023-04-09T07:28:42;10.85;;;9.75;;
19842;SDS011;10082;51.038;6.992;2023-04-09T07:31:11;10.70;;;9.70;;
19842;SDS011;10082;51.038;6.992;2023-04-09T07:33:39;10.77;;;9.77;;
19842;SDS011;10082;51.038;6.992;2023-04-09T07:36:06;10.48;;;9.48;;
19842;SDS011;10082;51.038;6.992;2023-04-09T07:38:34;10.82;;;9.80;;
19842;SDS011;10082;51.038;6.992;2023-04-09T07:41:02;10.95;;;9.95;;
19842;SDS011;10082;51.038;6.992;2023-04-09T07:43:30;10.13;;;9.15;;
19842;SDS011;10082;51.038;6.992;2023-04-09T07:45:57;10.48;;;9.13;;
19842;SDS011;10082;51.038;6.992;2023-04-09T07:48:29;9.45;;;7.85;;
19842;SDS011;10082;51.038;6.992;2023-04-09T07:50:58;10.05;;;8.02;;
19842;SDS011;10082;51.038;6.992;2023-04-09T07:53:25;9.70;;;8.70;;
19842;SDS011;10082;51.038;6.992;2023-04-09T07:55:53;9.45;;;7.88;;
19842;SDS011;10082;51.038;6.992;2023-04-09T07:58:20;7.82;;;6.57;;
19842;SDS011;10082;51.038;6.992;2023-04-09T08:00:48;8.65;;;7.40;;
19842;SDS011;10082;51.038;6.992;2023-04-09T08:03:20;8.75;;;7.85;;
19842;SDS011;10082;51.038;6.992;2023-04-09T08:05:49;9.05;;;8.10;;
19842;SDS011;10082;51.038;6.992;2023-04-09T08:11:20;8.85;;;7.93;;
19842;SDS011;10082;51.038;6.992;2023-04-09T08:13:49;8.73;;;7.63;;
19842;SDS011;10082;51.038;6.992;2023-04-09T08:16:17;8.88;;;7.97;;
19842;SDS011;10082;51.038;6.992;2023-04-09T08:18:45;7.93;;;7.13;;
19842;SDS011;10082;51.038;6.992;2023-04-09T08:21:14;8.40;;;7.70;;
19842;SDS011;10082;51.038;6.992;2023-04-09T08:23:41;8.10;;;7.40;;
19842;SDS011;10082;51.038;6.992;2023-04-09T08:26:08;8.32;;;7.53;;
19842;SDS011;10082;51.038;6.992;2023-04-09T08:28:35;7.50;;;6.80;;
19842;SDS011;10082;51.038;6.992;2023-04-09T08:31:02;7.40;;;6.70;;
19842;SDS011;10082;51.038;6.992;2023-04-09T08:33:30;7.68;;;6.97;;
19842;SDS011;10082;51.038;6.992;2023-04-09T08:35:57;8.20;;;7.40;;
19842;SDS011;10082;51.038;6.992;2023-04-09T08:38:26;8.10;;;7.05;;
19842;SDS011;10082;51.038;6.992;2023-04-09T08:40:53;7.97;;;7.18;;
19842;SDS011;10082;51.038;6.992;2023-04-09T08:43:22;7.53;;;6.82;;
19842;SDS011;10082;51.038;6.992;2023-04-09T08:45:52;7.90;;;7.20;;
19842;SDS011;10082;51.038;6.992;2023-04-09T08:48:22;7.65;;;6.88;;
19842;SDS011;10082;51.038;6.992;2023-04-09T08:50:50;7.90;;;7.15;;
19842;SDS011;10082;51.038;6.992;2023-04-09T08:53:17;7.25;;;6.55;;
19842;SDS011;10082;51.038;6.992;2023-04-09T08:55:48;7.30;;;6.68;;
19842;SDS011;10082;51.038;6.992;2023-04-09T08:58:16;7.32;;;6.53;;
19842;SDS011;10082;51.038;6.992;2023-04-09T09:00:43;7.95;;;7.20;;
19842;SDS011;10082;51.038;6.992;2023-04-09T09:03:11;6.97;;;6.28;;
19842;SDS011;10082;51.038;6.992;2023-04-09T09:05:40;7.90;;;6.93;;
19842;SDS011;10082;51.038;6.992;2023-04-09T09:08:08;6.90;;;6.30;;
19842;SDS011;10082;51.038;6.992;2023-04-09T09:10:39;5.93;;;5.32;;
19842;SDS011;10082;51.038;6.992;2023-04-09T09:13:21;6.35;;;5.75;;
19842;SDS011;10082;51.038;6.992;2023-04-09T09:15:49;6.05;;;5.55;;
19842;SDS011;10082;51.038;6.992;2023-04-09T09:18:19;6.20;;;5.70;;
19842;SDS011;10082;51.038;6.992;2023-04-09T09:20:47;7.57;;;6.80;;
19842;SDS011;10082;51.038;6.992;2023-04-09T09:23:14;7.07;;;6.00;;
19842;SDS011;10082;51.038;6.992;2023-04-09T09:25:42;7.55;;;6.65;;
19842;SDS011;10082;51.038;6.992;2023-04-09T09:28:10;6.50;;;5.90;;
19842;SDS011;10082;51.038;6.992;2023-04-09T09:30:40;7.35;;;6.63;;
19842;SDS011;10082;51.038;6.992;2023-04-09T09:33:07;6.70;;;6.10;;
19842;SDS011;10082;51.038;6.992;2023-04-09T09:35:45;5.93;;;5.43;;
19842;SDS011;10082;51.038;6.992;2023-04-09T09:38:13;5.97;;;5.47;;
19842;SDS011;10082;51.038;6.992;2023-04-09T09:40:41;5.82;;;5.32;;
19842;SDS011;10082;51.038;6.992;2023-04-09T09:43:09;5.90;;;5.40;;
19842;SDS011;10082;51.038;6.992;2023-04-09T09:45:36;6.05;;;5.53;;
19842;SDS011;10082;51.038;6.992;2023-04-09T09:48:06;5.75;;;5.25;;
19842;SDS011;10082;51.038;6.992;2023-04-09T09:50:33;5.30;;;4.80;;
19842;SDS011;10082;51.038;6.992;2023-04-09T09:53:02;5.30;;;4.80;;
19842;SDS011;10082;51.038;6.992;2023-04-09T09:55:31;5.65;;;5.15;;
19842;SDS011;10082;51.038;6.992;2023-04-09T09:58:00;6.00;;;5.50;;
19842;SDS011;10082;51.038;6.992;2023-04-09T10:00:31;5.75;;;5.25;;
19842;SDS011;10082;51.038;6.992;2023-04-09T10:03:01;5.70;;;5.13;;
19842;SDS011;10082;51.038;6.992;2023-04-09T10:05:40;5.68;;;5.00;;
19842;SDS011;10082;51.038;6.992;2023-04-09T10:08:07;5.60;;;4.97;;
19842;SDS011;10082;51.038;6.992;2023-04-09T10:10:36;5.60;;;4.80;;
19842;SDS011;10082;51.038;6.992;2023-04-09T10:13:06;5.28;;;4.78;;
19842;SDS011;10082;51.038;6.992;2023-04-09T10:15:39;5.60;;;5.05;;
19842;SDS011;10082;51.038;6.992;2023-04-09T10:18:10;4.82;;;4.43;;
19842;SDS011;10082;51.038;6.992;2023-04-09T10:20:38;5.93;;;5.43;;
19842;SDS011;10082;51.038;6.992;2023-04-09T10:23:10;5.25;;;4.75;;
19842;SDS011;10082;51.038;6.992;2023-04-09T10:25:44;6.20;;;5.60;;
19842;SDS011;10082;51.038;6.992;2023-04-09T10:28:14;5.57;;;5.07;;
19842;SDS011;10082;51.038;6.992;2023-04-09T10:30:43;6.18;;;5.68;;
19842;SDS011;10082;51.038;6.992;2023-04-09T10:33:12;5.65;;;5.15;;
19842;SDS011;10082;51.038;6.992;2023-04-09T10:35:40;5.55;;;5.05;;
19842;SDS011;10082;51.038;6.992;2023-04-09T10:38:09;5.90;;;5.30;;
19842;SDS011;10082;51.038;6.992;2023-04-09T10:40:40;6.03;;;5.53;;
19842;SDS011;10082;51.038;6.992;2023-04-09T10:43:08;6.90;;;6.30;;
19842;SDS011;10082;51.038;6.992;2023-04-09T10:45:39;6.30;;;5.78;;
19842;SDS011;10082;51.038;6.992;2023-04-09T10:48:11;6.70;;;6.10;;
19842;SDS011;10082;51.038;6.992;2023-04-09T10:50:41;6.00;;;5.50;;
19842;SDS011;10082;51.038;6.992;2023-04-09T10:53:19;6.43;;;5.82;;
19842;SDS011;10082;51.038;6.992;2023-04-09T10:55:48;6.57;;;5.88;;
19842;SDS011;10082;51.038;6.992;2023-04-09T10:58:16;7.32;;;6.38;;
19842;SDS011;10082;51.038;6.992;2023-04-09T11:00:44;6.18;;;5.68;;
19842;SDS011;10082;51.038;6.992;2023-04-09T11:03:17;6.68;;;6.03;;
19842;SDS011;10082;51.038;6.992;2023-04-09T11:05:52;6.93;;;6.32;;
19842;SDS011;10082;51.038;6.992;2023-04-09T11:08:26;6.45;;;5.95;;
19842;SDS011;10082;51.038;6.992;2023-04-09T11:10:54;6.57;;;5.97;;
19842;SDS011;10082;51.038;6.992;2023-04-09T11:13:22;6.10;;;5.60;;
19842;SDS011;10082;51.038;6.992;2023-04-09T11:15:50;5.75;;;5.25;;
19842;SDS011;10082;51.038;6.992;2023-04-09T11:18:23;6.97;;;5.78;;
19842;SDS011;10082;51.038;6.992;2023-04-09T11:20:54;6.78;;;6.18;;
19842;SDS011;10082;51.038;6.992;2023-04-09T11:23:22;7.20;;;6.50;;
19842;SDS011;10082;51.038;6.992;2023-04-09T11:25:53;7.22;;;6.32;;
19842;SDS011;10082;51.038;6.992;2023-04-09T11:28:21;6.45;;;5.85;;
19842;SDS011;10082;51.038;6.992;2023-04-09T11:30:50;6.68;;;6.07;;
19842;SDS011;10082;51.038;6.992;2023-04-09T11:33:17;5.95;;;5.35;;
19842;SDS011;10082;51.038;6.992;2023-04-09T11:35:47;6.15;;;5.55;;
19842;SDS011;10082;51.038;6.992;2023-04-09T11:38:14;5.90;;;5.40;;
19842;SDS011;10082;51.038;6.992;2023-04-09T11:40:42;5.47;;;4.97;;
19842;SDS011;10082;51.038;6.992;2023-04-09T11:43:12;5.57;;;5.07;;
19842;SDS011;10082;51.038;6.992;2023-04-09T11:45:41;5.60;;;5.10;;
19842;SDS011;10082;51.038;6.992;2023-04-09T11:48:11;5.78;;;5.20;;
19842;SDS011;10082;51.038;6.992;2023-04-09T11:50:40;5.15;;;4.65;;
19842;SDS011;10082;51.038;6.992;2023-04-09T11:53:19;5.60;;;5.10;;
19842;SDS011;10082;51.038;6.992;2023-04-09T11:55:48;5.25;;;4.75;;
19842;SDS011;10082;51.038;6.992;2023-04-09T11:58:16;5.30;;;4.80;;
19842;SDS011;10082;51.038;6.992;2023-04-09T12:00:43;5.43;;;4.93;;
19842;SDS011;10082;51.038;6.992;2023-04-09T12:03:11;5.22;;;4.82;;
19842;SDS011;10082;51.038;6.992;2023-04-09T12:05:43;4.80;;;4.40;;
19842;SDS011;10082;51.038;6.992;2023-04-09T12:08:12;4.50;;;4.10;;
19842;SDS011;10082;51.038;6.992;2023-04-09T12:10:45;4.90;;;4.50;;
19842;SDS011;10082;51.038;6.992;2023-04-09T12:13:18;5.68;;;5.18;;
19842;SDS011;10082;51.038;6.992;2023-04-09T12:15:50;4.82;;;4.43;;
19842;SDS011;10082;51.038;6.992;2023-04-09T12:18:17;5.53;;;5.03;;
19842;SDS011;10082;51.038;6.992;2023-04-09T12:20:47;4.82;;;4.38;;
19842;SDS011;10082;51.038;6.992;2023-04-09T12:23:15;4.40;;;4.00;;
19842;SDS011;10082;51.038;6.992;2023-04-09T12:25:47;4.90;;;4.40;;
19842;SDS011;10082;51.038;6.992;2023-04-09T12:28:17;5.03;;;4.45;;
19842;SDS011;10082;51.038;6.992;2023-04-09T12:30:45;4.18;;;3.85;;
19842;SDS011;10082;51.038;6.992;2023-04-09T12:33:13;4.75;;;4.35;;
19842;SDS011;10082;51.038;6.992;2023-04-09T12:35:41;4.75;;;3.75;;
19842;SDS011;10082;51.038;6.992;2023-04-09T12:38:08;4.60;;;4.18;;
19842;SDS011;10082;51.038;6.992;2023-04-09T12:40:35;4.80;;;4.30;;
19842;SDS011;10082;51.038;6.992;2023-04-09T12:43:04;4.80;;;4.30;;
19842;SDS011;10082;51.038;6.992;2023-04-09T12:45:32;5.10;;;4.32;;
19842;SDS011;10082;51.038;6.992;2023-04-09T12:47:59;4.53;;;4.13;;
19842;SDS011;10082;51.038;6.992;2023-04-09T12:50:26;4.93;;;4.43;;
19842;SDS011;10082;51.038;6.992;2023-04-09T12:52:53;4.47;;;4.07;;
19842;SDS011;10082;51.038;6.992;2023-04-09T12:55:22;5.18;;;4.47;;
19842;SDS011;10082;51.038;6.992;2023-04-09T12:57:49;5.10;;;4.60;;
19842;SDS011;10082;51.038;6.992;2023-04-09T13:00:18;4.47;;;4.05;;
19842;SDS011;10082;51.038;6.992;2023-04-09T13:02:45;5.15;;;4.65;;
19842;SDS011;10082;51.038;6.992;2023-04-09T13:05:13;4.53;;;4.03;;
19842;SDS011;10082;51.038;6.992;2023-04-09T13:07:40;4.30;;;3.90;;
19842;SDS011;10082;51.038;6.992;2023-04-09T13:10:07;4.15;;;3.85;;
19842;SDS011;10082;51.038;6.992;2023-04-09T13:12:35;4.75;;;4.22;;
19842;SDS011;10082;51.038;6.992;2023-04-09T13:15:05;4.40;;;4.00;;
19842;SDS011;10082;51.038;6.992;2023-04-09T13:17:35;4.55;;;4.15;;
19842;SDS011;10082;51.038;6.992;2023-04-09T13:20:06;4.75;;;4.35;;
19842;SDS011;10082;51.038;6.992;2023-04-09T13:22:34;4.80;;;4.40;;
19842;SDS011;10082;51.038;6.992;2023-04-09T13:25:02;4.22;;;3.90;;
19842;SDS011;10082;51.038;6.992;2023-04-09T13:27:30;5.72;;;5.13;;
19842;SDS011;10082;51.038;6.992;2023-04-09T13:29:58;5.85;;;3.97;;
19842;SDS011;10082;51.038;6.992;2023-04-09T13:32:25;5.32;;;4.65;;
19842;SDS011;10082;51.038;6.992;2023-04-09T13:34:54;5.18;;;4.70;;
19842;SDS011;10082;51.038;6.992;2023-04-09T13:37:24;5.25;;;4.85;;
19842;SDS011;10082;51.038;6.992;2023-04-09T13:39:54;5.07;;;4.57;;
19842;SDS011;10082;51.038;6.992;2023-04-09T13:42:21;4.65;;;4.25;;
19842;SDS011;10082;51.038;6.992;2023-04-09T13:44:48;4.55;;;4.15;;
19842;SDS011;10082;51.038;6.992;2023-04-09T13:47:15;5.20;;;4.70;;
19842;SDS011;10082;51.038;6.992;2023-04-09T13:49:43;4.63;;;4.22;;
19842;SDS011;10082;51.038;6.992;2023-04-09T13:52:12;4.53;;;4.13;;
19842;SDS011;10082;51.038;6.992;2023-04-09T13:54:40;4.85;;;4.45;;
19842;SDS011;10082;51.038;6.992;2023-04-09T13:57:07;4.30;;;3.90;;
19842;SDS011;10082;51.038;6.992;2023-04-09T13:59:35;4.85;;;4.45;;
19842;SDS011;10082;51.038;6.992;2023-04-09T14:02:05;4.88;;;4.25;;
19842;SDS011;10082;51.038;6.992;2023-04-09T14:04:33;4.55;;;4.15;;
19842;SDS011;10082;51.038;6.992;2023-04-09T14:07:00;4.95;;;4.50;;
19842;SDS011;10082;51.038;6.992;2023-04-09T14:09:29;6.35;;;4.80;;
19842;SDS011;10082;51.038;6.992;2023-04-09T14:11:56;4.85;;;4.32;;
19842;SDS011;10082;51.038;6.992;2023-04-09T14:14:23;4.70;;;4.30;;
19842;SDS011;10082;51.038;6.992;2023-04-09T14:16:53;4.78;;;4.38;;
19842;SDS011;10082;51.038;6.992;2023-04-09T14:19:22;4.90;;;4.50;;
19842;SDS011;10082;51.038;6.992;2023-04-09T14:21:49;4.78;;;4.38;;
19842;SDS011;10082;51.038;6.992;2023-04-09T14:24:26;5.13;;;4.72;;
19842;SDS011;10082;51.038;6.992;2023-04-09T14:26:55;4.85;;;4.45;;
19842;SDS011;10082;51.038;6.992;2023-04-09T14:29:23;5.00;;;4.60;;
19842;SDS011;10082;51.038;6.992;2023-04-09T14:31:51;5.03;;;4.63;;
19842;SDS011;10082;51.038;6.992;2023-04-09T14:34:18;4.95;;;4.55;;
19842;SDS011;10082;51.038;6.992;2023-04-09T14:36:46;4.68;;;4.28;;
19842;SDS011;10082;51.038;6.992;2023-04-09T14:39:16;4.50;;;4.20;;
19842;SDS011;10082;51.038;6.992;2023-04-09T14:41:43;4.97;;;4.57;;
19842;SDS011;10082;51.038;6.992;2023-04-09T14:44:12;5.25;;;4.75;;
19842;SDS011;10082;51.038;6.992;2023-04-09T14:46:39;5.38;;;4.88;;
19842;SDS011;10082;51.038;6.992;2023-04-09T14:49:07;5.10;;;4.70;;